Time;durP1;ratioP1;P1;durP2;ratioP2;P2;SDS_P1;SDS_P2;PMS_P1;PMS_P2;Temp;Humidity;BMP_temperature;BMP_pressure;BME280_temperature;BME280_humidity;BME280_pressure;Samples;Min_cycle;Max_cycle;Signal;HPM_P1;HPM_P2
2024/01/05 00:02:18;;;;;;;0.10;0.10;;;;;;;10.27;76.29;99897.41;5051718;28;20029;-82
2024/01/05 00:04:44;;;;;;;0.47;0.47;;;;;;;10.26;76.35;99890.38;5053608;28;20068;-81
2024/01/05 00:07:11;;;;;;;0.10;0.10;;;;;;;10.32;76.07;99886.66;5056408;28;20018;-82
2024/01/05 00:09:37;;;;;;;1.38;1.38;;;;;;;10.28;76.36;99888.56;5054546;28;20038;-80
2024/01/05 00:12:03;;;;;;;0.10;0.10;;;;;;;10.22;76.81;99888.75;5055709;28;20036;-78
2024/01/05 00:14:30;;;;;;;0.10;0.10;;;;;;;10.25;76.92;99888.63;5056941;28;20040;-81
2024/01/05 00:16:59;;;;;;;0.52;0.52;;;;;;;10.31;76.69;99888.44;5059158;28;20041;-83
2024/01/05 00:19:25;;;;;;;0.10;0.10;;;;;;;10.31;76.60;99866.41;5059189;28;20050;-83
2024/01/05 00:21:52;;;;;;;1.83;1.73;;;;;;;10.36;76.62;99872.44;5053424;28;20022;-82
2024/01/05 00:24:18;;;;;;;0.25;0.25;;;;;;;10.35;76.68;99868.91;5051005;28;20033;-85
2024/01/05 00:26:44;;;;;;;0.17;0.17;;;;;;;10.30;76.84;99870.81;5050699;28;20048;-81
2024/01/05 00:29:10;;;;;;;0.57;0.57;;;;;;;10.40;76.62;99859.94;5060825;28;20033;-84
2024/01/05 00:31:37;;;;;;;0.20;0.20;;;;;;;10.36;76.55;99856.53;5054462;28;20123;-83
2024/01/05 00:34:03;;;;;;;0.10;0.10;;;;;;;10.33;76.78;99854.84;5053319;28;20041;-83
2024/01/05 00:36:29;;;;;;;0.20;0.20;;;;;;;10.34;76.43;99856.56;5055596;28;20025;-83
2024/01/05 00:38:56;;;;;;;0.63;0.60;;;;;;;10.20;77.03;99846.47;5059374;28;20044;-84
2024/01/05 00:41:22;;;;;;;0.10;0.10;;;;;;;10.27;76.27;99847.09;5066651;28;20041;-83
2024/01/05 00:43:49;;;;;;;0.10;0.10;;;;;;;10.29;76.47;99841.75;5066240;28;20086;-84
2024/01/05 00:46:15;;;;;;;0.10;0.10;;;;;;;10.28;76.62;99840.91;5060713;28;20092;-83
2024/01/05 00:48:41;;;;;;;0.10;0.10;;;;;;;10.31;76.23;99838.13;5064722;28;20037;-84
2024/01/05 00:51:07;;;;;;;0.10;0.10;;;;;;;10.34;76.26;99839.78;5062923;28;20025;-83
2024/01/05 00:53:33;;;;;;;0.20;0.20;;;;;;;10.33;76.37;99838.94;5061387;28;20036;-85
2024/01/05 00:56:00;;;;;;;2.88;2.72;;;;;;;10.32;76.61;99831.91;5057219;28;20030;-83
2024/01/05 00:58:26;;;;;;;0.30;0.30;;;;;;;10.37;76.52;99829.16;5063659;28;20021;-82
2024/01/05 01:00:52;;;;;;;0.10;0.10;;;;;;;10.39;76.57;99832.59;5061992;28;20088;-82
2024/01/05 01:03:18;;;;;;;0.20;0.20;;;;;;;10.41;76.55;99832.56;5058032;28;20029;-83
2024/01/05 01:05:44;;;;;;;0.20;0.20;;;;;;;10.44;76.48;99825.38;5065872;28;20036;-83
2024/01/05 01:08:12;;;;;;;0.10;0.10;;;;;;;10.45;76.38;99823.56;5061498;28;20033;-83
2024/01/05 01:10:39;;;;;;;0.10;0.10;;;;;;;10.42;76.37;99819.25;5062761;28;20062;-82
2024/01/05 01:13:05;;;;;;;0.10;0.10;;;;;;;10.50;76.36;99813.66;5061650;28;20079;-83
2024/01/05 01:15:31;;;;;;;0.10;0.10;;;;;;;10.52;76.13;99806.56;5062228;28;20055;-83
2024/01/05 01:17:57;;;;;;;0.25;0.25;;;;;;;10.55;76.53;99806.41;5067588;28;20088;-82
2024/01/05 01:20:24;;;;;;;0.10;0.10;;;;;;;10.57;76.01;99806.38;5066406;28;20091;-83
2024/01/05 01:22:50;;;;;;;0.10;0.10;;;;;;;10.57;76.29;99803.75;5060898;28;20033;-83
2024/01/05 01:25:16;;;;;;;0.10;0.10;;;;;;;10.59;76.17;99794.81;5060187;28;20064;-82
2024/01/05 01:27:42;;;;;;;0.10;0.10;;;;;;;10.57;76.06;99786.06;5059417;28;20045;-81
2024/01/05 01:30:09;;;;;;;0.10;0.10;;;;;;;10.58;76.26;99779.84;5065547;28;20033;-81
2024/01/05 01:32:36;;;;;;;0.10;0.10;;;;;;;10.60;76.38;99777.97;5058441;28;20305;-82
2024/01/05 01:35:03;;;;;;;0.10;0.10;;;;;;;10.64;76.03;99771.66;5063277;28;20048;-81
2024/01/05 01:37:29;;;;;;;0.10;0.10;;;;;;;10.62;76.27;99770.84;5066587;28;20013;-81
2024/01/05 01:39:56;;;;;;;0.10;0.10;;;;;;;10.62;76.43;99765.53;5066626;28;20100;-81
2024/01/05 01:42:22;;;;;;;0.10;0.10;;;;;;;10.60;76.30;99753.28;5069593;28;20041;-81
2024/01/05 01:44:48;;;;;;;0.10;0.10;;;;;;;10.61;76.37;99758.50;5068580;28;20025;-82
2024/01/05 01:47:15;;;;;;;0.20;0.20;;;;;;;10.65;76.39;99749.56;5060152;28;20029;-82
2024/01/05 01:49:41;;;;;;;0.17;0.17;;;;;;;10.64;76.27;99742.53;5061920;28;20029;-81
2024/01/05 01:52:08;;;;;;;0.25;0.25;;;;;;;10.66;76.30;99745.09;5066090;28;20025;-82
2024/01/05 01:54:35;;;;;;;15.00;3.03;;;;;;;10.70;76.47;99740.56;5066041;28;20043;-81
2024/01/05 01:57:04;;;;;;;0.10;0.10;;;;;;;10.68;76.49;99744.13;5063623;28;20021;-81
2024/01/05 01:59:30;;;;;;;0.35;0.35;;;;;;;10.64;76.30;99734.56;5066103;28;20029;-82
2024/01/05 02:01:58;;;;;;;0.17;0.17;;;;;;;10.68;76.50;99725.56;5063533;28;20034;-82
2024/01/05 02:04:25;;;;;;;0.10;0.10;;;;;;;10.75;76.36;99722.69;5063259;28;20037;-81
2024/01/05 02:06:52;;;;;;;0.10;0.10;;;;;;;10.68;76.54;99712.34;5066782;28;20587;-81
2024/01/05 02:09:18;;;;;;;0.10;0.10;;;;;;;10.74;76.54;99715.66;5058800;28;20508;-80
2024/01/05 02:11:45;;;;;;;0.13;0.13;;;;;;;10.72;76.27;99702.50;5063599;28;20121;-80
2024/01/05 02:14:11;;;;;;;0.10;0.10;;;;;;;10.77;76.34;99699.66;5056946;28;20032;-82
2024/01/05 02:16:40;;;;;;;0.10;0.10;;;;;;;10.71;76.50;99692.81;5057017;28;20033;-83
2024/01/05 02:19:06;;;;;;;0.10;0.10;;;;;;;10.80;75.92;99688.94;5062079;28;20021;-83
2024/01/05 02:21:37;;;;;;;0.10;0.10;;;;;;;10.77;76.12;99687.25;5059028;28;20028;-83
2024/01/05 02:24:03;;;;;;;0.20;0.20;;;;;;;10.75;76.43;99681.16;5058470;28;20396;-83
2024/01/05 02:26:30;;;;;;;0.10;0.10;;;;;;;10.77;76.34;99678.47;5055262;28;20158;-83
2024/01/05 02:28:56;;;;;;;0.10;0.10;;;;;;;10.83;76.06;99678.22;5056464;28;20040;-83
2024/01/05 02:31:22;;;;;;;0.10;0.10;;;;;;;10.79;75.96;99676.59;5061275;28;20047;-83
2024/01/05 02:33:48;;;;;;;0.10;0.10;;;;;;;10.80;76.05;99678.34;5062477;28;20036;-80
2024/01/05 02:36:14;;;;;;;0.10;0.10;;;;;;;10.82;76.31;99676.50;5062522;28;20024;-80
2024/01/05 02:38:41;;;;;;;0.20;0.20;;;;;;;10.83;76.39;99670.28;5061833;28;20044;-83
2024/01/05 02:41:07;;;;;;;0.10;0.10;;;;;;;10.82;75.88;99655.28;5059378;28;20025;-81
2024/01/05 02:43:34;;;;;;;0.20;0.20;;;;;;;10.91;75.90;99652.25;5062815;28;20033;-82
2024/01/05 02:46:00;;;;;;;1.38;1.38;;;;;;;10.91;76.22;99651.41;5058960;28;20040;-83
2024/01/05 02:48:26;;;;;;;0.10;0.10;;;;;;;10.90;75.49;99650.53;5068272;28;20032;-83
2024/01/05 02:50:52;;;;;;;0.10;0.10;;;;;;;10.92;75.50;99646.03;5070561;28;20037;-83
2024/01/05 02:53:18;;;;;;;0.20;0.20;;;;;;;10.91;75.71;99641.66;5064993;28;20104;-83
2024/01/05 02:55:45;;;;;;;0.10;0.10;;;;;;;10.92;75.28;99646.03;5056732;28;20033;-82
2024/01/05 02:58:11;;;;;;;5.57;3.30;;;;;;;10.91;75.68;99633.72;5053875;28;20017;-82
2024/01/05 03:00:37;;;;;;;0.10;0.10;;;;;;;10.94;75.42;99638.91;5059332;28;20381;-82
2024/01/05 03:03:04;;;;;;;0.10;0.10;;;;;;;11.02;74.96;99632.44;5052479;28;20041;-82
2024/01/05 03:05:31;;;;;;;0.63;0.63;;;;;;;10.95;75.72;99624.72;5053812;28;20338;-83
2024/01/05 03:07:57;;;;;;;0.10;0.10;;;;;;;11.03;75.57;99621.75;5053307;28;20079;-82
2024/01/05 03:10:24;;;;;;;0.10;0.10;;;;;;;11.03;75.00;99615.56;5055301;28;20041;-83
2024/01/05 03:12:51;;;;;;;0.55;0.55;;;;;;;10.97;75.42;99606.97;5059339;28;20033;-82
2024/01/05 03:15:18;;;;;;;0.10;0.10;;;;;;;11.00;75.55;99601.53;5061165;28;20036;-82
2024/01/05 03:17:44;;;;;;;0.30;0.30;;;;;;;11.05;75.20;99597.84;5061420;28;20039;-83
2024/01/05 03:20:11;;;;;;;0.10;0.10;;;;;;;11.03;75.28;99594.38;5058456;28;20021;-82
2024/01/05 03:22:37;;;;;;;1.40;1.30;;;;;;;11.04;74.75;99601.41;5061476;28;20029;-82
2024/01/05 03:25:03;;;;;;;0.10;0.10;;;;;;;11.02;75.12;99597.97;5065218;28;20032;-83
2024/01/05 03:27:30;;;;;;;0.10;0.10;;;;;;;10.98;75.23;99598.09;5064502;28;20029;-82
2024/01/05 03:29:56;;;;;;;0.10;0.10;;;;;;;10.98;74.89;99598.09;5063461;28;20033;-82
2024/01/05 03:32:23;;;;;;;0.90;0.90;;;;;;;11.00;75.14;99596.25;5056352;28;20092;-83
2024/01/05 03:34:49;;;;;;;0.10;0.10;;;;;;;10.93;74.98;99585.94;5060850;28;20029;-83
2024/01/05 03:37:15;;;;;;;0.10;0.10;;;;;;;10.86;75.26;99595.94;5058886;28;20075;-83
2024/01/05 03:39:41;;;;;;;0.10;0.10;;;;;;;10.88;75.41;99583.50;5058468;28;20044;-82
2024/01/05 03:42:08;;;;;;;0.17;0.17;;;;;;;10.95;74.97;99570.84;5050634;28;20108;-83
2024/01/05 03:44:34;;;;;;;0.10;0.10;;;;;;;10.95;75.51;99571.72;5059144;28;20051;-82
2024/01/05 03:47:00;;;;;;;0.10;0.10;;;;;;;10.99;75.03;99567.13;5062353;28;20037;-81
2024/01/05 03:49:26;;;;;;;0.10;0.10;;;;;;;11.00;75.06;99559.13;5063287;28;20029;-82
2024/01/05 03:51:53;;;;;;;0.10;0.10;;;;;;;11.01;75.54;99554.69;5056584;28;20036;-83
2024/01/05 03:54:19;;;;;;;0.10;0.10;;;;;;;10.94;75.09;99548.81;5063427;28;20075;-82
2024/01/05 03:56:46;;;;;;;0.10;0.10;;;;;;;10.92;74.74;99544.50;5070010;28;20096;-83
2024/01/05 03:59:13;;;;;;;0.10;0.10;;;;;;;10.92;75.04;99541.84;5060655;28;20025;-82
2024/01/05 04:01:47;;;;;;;0.10;0.10;;;;;;;10.91;74.45;99535.66;5054862;28;20124;-83
2024/01/05 04:04:14;;;;;;;0.10;0.10;;;;;;;10.83;74.94;99529.84;5059477;28;20064;-83
2024/01/05 04:06:41;;;;;;;0.10;0.10;;;;;;;10.86;74.70;99518.25;5056774;28;20033;-83
2024/01/05 04:09:11;;;;;;;0.10;0.10;;;;;;;10.80;74.95;99524.66;5051597;28;20041;-83
2024/01/05 04:11:38;;;;;;;0.20;0.20;;;;;;;10.84;74.56;99515.66;5050170;28;20029;-83
2024/01/05 04:14:05;;;;;;;0.10;0.10;;;;;;;10.80;74.53;99509.66;5060172;28;20044;-82
2024/01/05 04:16:32;;;;;;;0.10;0.10;;;;;;;10.77;75.10;99508.91;5059159;28;20492;-84
2024/01/05 04:18:58;;;;;;;0.17;0.17;;;;;;;10.75;74.72;99506.28;5065614;28;20052;-84
2024/01/05 04:21:24;;;;;;;0.20;0.20;;;;;;;10.78;75.26;99506.19;5058461;28;20049;-83
2024/01/05 04:23:55;;;;;;;0.73;0.73;;;;;;;10.82;74.78;99493.66;5057505;28;20029;-83
2024/01/05 04:26:22;;;;;;;0.20;0.20;;;;;;;10.82;74.68;99496.31;5063905;28;20025;-84
2024/01/05 04:28:48;;;;;;;0.10;0.10;;;;;;;10.84;74.68;99489.16;5060796;28;20511;-84
2024/01/05 04:31:15;;;;;;;0.10;0.10;;;;;;;10.82;74.84;99485.72;5062589;28;20028;-83
2024/01/05 04:33:41;;;;;;;0.40;0.40;;;;;;;10.81;74.76;99479.53;5067479;28;20484;-84
2024/01/05 04:36:07;;;;;;;0.17;0.17;;;;;;;10.82;74.42;99483.06;5061589;28;20041;-84
2024/01/05 04:38:34;;;;;;;0.10;0.10;;;;;;;10.84;74.70;99478.56;5053456;28;20037;-83
2024/01/05 04:41:01;;;;;;;1.77;0.85;;;;;;;10.90;74.54;99480.94;5059694;28;20033;-85
2024/01/05 04:43:28;;;;;;;0.13;0.13;;;;;;;10.90;74.46;99475.63;5065747;28;20029;-84
2024/01/05 04:45:54;;;;;;;0.10;0.10;;;;;;;10.93;73.82;99477.28;5062828;28;20100;-85
2024/01/05 04:48:20;;;;;;;0.10;0.10;;;;;;;10.91;74.55;99477.38;5057757;28;20025;-84
2024/01/05 04:50:46;;;;;;;0.10;0.10;;;;;;;10.93;74.22;99480.81;5060610;28;20492;-84
2024/01/05 04:53:12;;;;;;;0.10;0.10;;;;;;;10.82;74.47;99475.13;5061369;28;20044;-83
2024/01/05 04:55:38;;;;;;;0.20;0.20;;;;;;;10.72;74.63;99474.66;5061831;28;20032;-83
2024/01/05 04:58:05;;;;;;;0.10;0.10;;;;;;;10.68;74.56;99475.72;5063069;28;20420;-84
2024/01/05 05:00:31;;;;;;;0.10;0.10;;;;;;;10.67;74.33;99471.34;5066943;28;20024;-82
2024/01/05 05:02:57;;;;;;;0.10;0.10;;;;;;;10.70;74.20;99465.06;5063298;28;20045;-82
2024/01/05 05:05:23;;;;;;;0.30;0.30;;;;;;;10.73;73.99;99470.19;5066638;28;20017;-84
2024/01/05 05:07:49;;;;;;;0.20;0.20;;;;;;;10.71;74.20;99461.47;5064063;28;20053;-83
2024/01/05 05:10:16;;;;;;;0.10;0.10;;;;;;;10.73;73.96;99470.19;5061997;28;20036;-83
2024/01/05 05:12:42;;;;;;;0.20;0.20;;;;;;;10.75;74.31;99468.38;5057230;28;20021;-86
2024/01/05 05:15:10;;;;;;;0.20;0.20;;;;;;;10.73;74.47;99459.59;5063131;28;20051;-86
2024/01/05 05:17:36;;;;;;;0.10;0.10;;;;;;;10.82;73.64;99453.94;5054284;28;20106;-85
2024/01/05 05:20:03;;;;;;;0.13;0.13;;;;;;;10.77;73.97;99451.47;5053180;28;20028;-84
2024/01/05 05:22:29;;;;;;;0.10;0.10;;;;;;;10.81;73.99;99468.09;5057591;28;20026;-84
2024/01/05 05:24:55;;;;;;;0.20;0.20;;;;;;;10.80;73.71;99472.56;5061047;28;20028;-83
2024/01/05 05:27:21;;;;;;;0.20;0.20;;;;;;;10.82;73.98;99464.53;5062880;28;20024;-82
2024/01/05 05:29:48;;;;;;;1.55;0.57;;;;;;;10.78;73.98;99471.75;5063097;28;20048;-83
2024/01/05 05:32:14;;;;;;;0.10;0.10;;;;;;;10.78;74.19;99469.09;5058552;28;20040;-84
2024/01/05 05:34:43;;;;;;;0.10;0.10;;;;;;;10.70;73.19;99467.69;5057507;28;20055;-84
2024/01/05 05:37:09;;;;;;;0.10;0.10;;;;;;;10.66;72.99;99486.34;5054709;28;20029;-83
2024/01/05 05:39:36;;;;;;;0.30;0.30;;;;;;;10.59;72.76;99474.31;5052546;28;20061;-83
2024/01/05 05:42:02;;;;;;;0.10;0.10;;;;;;;10.47;71.99;99467.75;5049981;28;20104;-83
2024/01/05 05:44:29;;;;;;;0.10;0.10;;;;;;;10.34;70.62;99459.41;5048717;28;20048;-83
2024/01/05 05:46:56;;;;;;;0.10;0.10;;;;;;;10.33;71.10;99447.09;5049311;28;20072;-83
2024/01/05 05:49:22;;;;;;;0.30;0.30;;;;;;;10.28;69.99;99453.50;5049600;28;20052;-83
2024/01/05 05:51:48;;;;;;;0.10;0.10;;;;;;;10.28;70.41;99451.72;5051040;28;20037;-84
2024/01/05 05:54:14;;;;;;;0.20;0.20;;;;;;;10.25;69.88;99449.19;5047971;28;20069;-82
2024/01/05 05:56:41;;;;;;;0.10;0.10;;;;;;;10.27;69.72;99451.78;5045572;28;20022;-83
2024/01/05 05:59:07;;;;;;;0.10;0.10;;;;;;;10.23;69.50;99461.66;5046239;28;20037;-83
2024/01/05 06:01:33;;;;;;;0.20;0.20;;;;;;;10.08;69.58;99456.97;5053807;28;20021;-84
2024/01/05 06:03:59;;;;;;;0.10;0.10;;;;;;;10.12;69.87;99463.84;5064205;28;20041;-83
2024/01/05 06:06:25;;;;;;;0.10;0.10;;;;;;;10.12;69.87;99471.78;5067582;28;20037;-83
2024/01/05 06:08:51;;;;;;;0.10;0.10;;;;;;;10.05;69.82;99473.81;5056835;28;20033;-84
2024/01/05 06:11:18;;;;;;;0.10;0.10;;;;;;;10.11;69.45;99462.16;5056103;28;20427;-85
2024/01/05 06:13:45;;;;;;;0.20;0.20;;;;;;;10.04;68.70;99465.03;5053700;28;20033;-83
2024/01/05 06:16:12;;;;;;;0.20;0.20;;;;;;;10.08;68.69;99467.53;5069773;28;20040;-83
2024/01/05 06:18:39;;;;;;;0.10;0.10;;;;;;;10.12;68.57;99461.19;5065331;28;20503;-83
2024/01/05 06:21:05;;;;;;;0.10;0.10;;;;;;;10.12;68.20;99463.84;5058763;28;20483;-83
2024/01/05 06:23:32;;;;;;;0.20;0.20;;;;;;;10.14;68.61;99456.72;5056087;28;20029;-84
2024/01/05 06:25:59;;;;;;;0.10;0.10;;;;;;;10.06;68.53;99448.25;5059455;28;20037;-83
2024/01/05 06:28:25;;;;;;;0.10;0.10;;;;;;;9.96;68.45;99456.53;5058985;28;20051;-86
2024/01/05 06:30:51;;;;;;;0.13;0.13;;;;;;;9.95;68.29;99457.44;5061737;28;20054;-85
2024/01/05 06:33:17;;;;;;;0.10;0.10;;;;;;;9.97;68.07;99454.72;5059648;28;20036;-84
2024/01/05 06:35:43;;;;;;;0.10;0.10;;;;;;;9.86;68.28;99450.75;5058313;28;20039;-85
2024/01/05 06:38:10;;;;;;;0.10;0.10;;;;;;;9.82;68.09;99449.16;5059469;28;20040;-83
2024/01/05 06:40:36;;;;;;;0.10;0.10;;;;;;;9.80;68.11;99452.78;5056257;28;20078;-84
2024/01/05 06:43:02;;;;;;;0.10;0.10;;;;;;;9.87;68.05;99447.19;5057529;28;20036;-84
2024/01/05 06:45:28;;;;;;;0.10;0.10;;;;;;;9.75;67.85;99460.03;5059861;28;20037;-84
2024/01/05 06:47:54;;;;;;;0.10;0.10;;;;;;;9.84;68.07;99451.72;5060639;28;20060;-84
2024/01/05 06:50:20;;;;;;;0.10;0.10;;;;;;;9.71;68.47;99467.22;5057811;28;20235;-82
2024/01/05 06:52:47;;;;;;;0.17;0.17;;;;;;;9.79;68.82;99469.56;5057307;28;20040;-85
2024/01/05 06:55:13;;;;;;;0.10;0.10;;;;;;;9.65;69.59;99463.00;5051509;28;20032;-82
2024/01/05 06:57:39;;;;;;;0.20;0.20;;;;;;;9.74;69.59;99463.59;5059806;28;20051;-82
2024/01/05 07:00:08;;;;;;;0.20;0.20;;;;;;;9.66;70.43;99456.81;5061141;28;20036;-82
2024/01/05 07:02:35;;;;;;;0.15;0.15;;;;;;;9.59;70.66;99465.03;5060114;28;20036;-83
2024/01/05 07:05:03;;;;;;;0.10;0.10;;;;;;;9.51;70.62;99455.63;5054324;28;20036;-84
2024/01/05 07:07:29;;;;;;;0.20;0.20;;;;;;;9.45;70.75;99457.63;5050718;28;20025;-83
2024/01/05 07:09:56;;;;;;;0.10;0.10;;;;;;;9.49;70.64;99451.31;5052576;28;20062;-84
2024/01/05 07:12:23;;;;;;;0.10;0.10;;;;;;;9.39;70.62;99449.03;5049888;28;20029;-83
2024/01/05 07:14:50;;;;;;;0.10;0.10;;;;;;;9.44;70.78;99455.91;5063247;28;20035;-83
2024/01/05 07:17:16;;;;;;;0.13;0.13;;;;;;;9.44;71.19;99450.63;5051282;28;20038;-84
2024/01/05 07:19:42;;;;;;;0.20;0.20;;;;;;;9.43;71.53;99452.38;5058037;28;20032;-83
2024/01/05 07:22:08;;;;;;;0.10;0.10;;;;;;;9.37;71.91;99449.97;5048498;28;20037;-83
2024/01/05 07:24:37;;;;;;;0.20;0.20;;;;;;;9.31;72.29;99445.78;5060729;28;20044;-82
2024/01/05 07:27:04;;;;;;;0.20;0.20;;;;;;;9.19;72.89;99440.97;5073717;28;20269;-82
2024/01/05 07:29:31;;;;;;;0.10;0.10;;;;;;;9.23;73.09;99446.09;5064693;28;20043;-84
2024/01/05 07:31:57;;;;;;;0.10;0.10;;;;;;;9.19;73.12;99441.81;5060046;28;20021;-85
2024/01/05 07:34:23;;;;;;;0.13;0.13;;;;;;;9.23;73.10;99443.44;5059315;28;20064;-82
2024/01/05 07:36:50;;;;;;;0.30;0.30;;;;;;;9.25;72.70;99445.19;5046439;28;20021;-82
2024/01/05 07:39:16;;;;;;;0.10;0.10;;;;;;;9.24;72.79;99444.28;5056472;28;20448;-82
2024/01/05 07:41:42;;;;;;;0.10;0.10;;;;;;;9.22;73.06;99446.13;5058559;28;20032;-82
2024/01/05 07:44:08;;;;;;;0.10;0.10;;;;;;;9.20;73.38;99442.69;5059120;28;20411;-81
2024/01/05 07:46:41;;;;;;;0.10;0.10;;;;;;;9.20;73.54;99453.25;5064426;28;20017;-83
2024/01/05 07:49:07;;;;;;;0.17;0.17;;;;;;;9.10;73.25;99444.81;5061032;28;20036;-83
2024/01/05 07:51:33;;;;;;;0.15;0.15;;;;;;;9.21;73.35;99439.13;5055313;28;20076;-82
2024/01/05 07:53:59;;;;;;;0.10;0.10;;;;;;;9.18;73.55;99436.59;5068472;28;20040;-82
2024/01/05 07:56:25;;;;;;;0.15;0.15;;;;;;;9.17;73.80;99441.03;5068099;28;20021;-82
2024/01/05 07:58:52;;;;;;;0.13;0.13;;;;;;;9.15;73.86;99434.91;5063965;28;20032;-81
2024/01/05 08:01:19;;;;;;;0.20;0.20;;;;;;;9.18;73.85;99420.72;5061543;28;20025;-82
2024/01/05 08:03:46;;;;;;;0.10;0.10;;;;;;;9.12;73.99;99435.06;5054259;28;20090;-82
2024/01/05 08:06:16;;;;;;;0.10;0.10;;;;;;;9.10;74.06;99425.44;5051078;28;20041;-83
2024/01/05 08:08:45;;;;;;;0.17;0.17;;;;;;;9.12;73.99;99431.53;5052449;28;20025;-83
2024/01/05 08:11:12;;;;;;;0.20;0.20;;;;;;;9.06;74.24;99424.72;5060068;28;20028;-83
2024/01/05 08:13:38;;;;;;;0.10;0.10;;;;;;;8.96;74.41;99429.47;5057588;28;20029;-83
2024/01/05 08:16:06;;;;;;;0.10;0.10;;;;;;;9.09;74.39;99418.44;5063838;28;20033;-82
2024/01/05 08:18:32;;;;;;;0.15;0.15;;;;;;;9.05;74.39;99422.97;5060487;28;20043;-82
2024/01/05 08:20:58;;;;;;;0.13;0.13;;;;;;;9.11;74.47;99422.75;5051802;28;20037;-82
2024/01/05 08:23:24;;;;;;;0.10;0.10;;;;;;;9.11;74.73;99412.19;5062413;28;20025;-81
2024/01/05 08:25:50;;;;;;;0.20;0.20;;;;;;;9.14;74.73;99405.91;5060425;28;20025;-81
2024/01/05 08:28:17;;;;;;;0.10;0.10;;;;;;;9.15;74.82;99415.59;5053416;28;20037;-81
2024/01/05 08:30:43;;;;;;;0.10;0.10;;;;;;;9.10;74.83;99401.66;5053479;28;20033;-81
2024/01/05 08:33:10;;;;;;;0.20;0.20;;;;;;;9.10;74.49;99409.56;5049923;28;20025;-81
2024/01/05 08:35:36;;;;;;;0.10;0.10;;;;;;;9.03;74.73;99399.25;5057665;28;20025;-82
2024/01/05 08:38:02;;;;;;;0.10;0.10;;;;;;;9.04;75.19;99403.59;5063241;28;20132;-82
2024/01/05 08:40:30;;;;;;;0.10;0.10;;;;;;;8.99;75.24;99404.72;5059773;28;20030;-83
2024/01/05 08:42:58;;;;;;;0.10;0.10;;;;;;;9.07;74.82;99398.22;5053524;28;20164;-83
2024/01/05 08:45:24;;;;;;;0.20;0.20;;;;;;;9.00;75.33;99412.56;5057711;28;20063;-83
2024/01/05 08:47:50;;;;;;;0.10;0.10;;;;;;;9.04;74.91;99406.25;5054539;28;20307;-83
2024/01/05 08:50:17;;;;;;;0.30;0.30;;;;;;;8.93;75.25;99397.84;5055384;28;20131;-83
2024/01/05 08:52:44;;;;;;;0.10;0.10;;;;;;;8.93;75.16;99403.13;5061868;28;20435;-83
2024/01/05 08:55:13;;;;;;;0.17;0.17;;;;;;;8.98;75.47;99401.19;5059871;28;20078;-82
2024/01/05 08:57:39;;;;;;;0.10;0.10;;;;;;;8.93;75.42;99413.72;5054411;28;20017;-83
2024/01/05 09:00:09;;;;;;;0.10;0.10;;;;;;;8.88;75.30;99405.97;5052654;28;20037;-83
2024/01/05 09:02:36;;;;;;;0.20;0.20;;;;;;;8.86;75.63;99406.91;5059336;28;20021;-82
2024/01/05 09:05:04;;;;;;;0.20;0.20;;;;;;;8.97;75.08;99399.50;5063344;28;20056;-83
2024/01/05 09:07:32;;;;;;;0.20;0.20;;;;;;;8.86;75.24;99415.72;5060540;28;20027;-81
2024/01/05 09:09:58;;;;;;;0.10;0.10;;;;;;;8.88;75.75;99405.09;5062246;28;20108;-82
2024/01/05 09:12:24;;;;;;;0.10;0.10;;;;;;;8.90;75.45;99408.56;5061694;28;20025;-82
2024/01/05 09:14:50;;;;;;;0.10;0.10;;;;;;;8.93;75.76;99407.56;5055729;28;20075;-83
2024/01/05 09:17:17;;;;;;;0.10;0.10;;;;;;;8.79;75.98;99410.72;5055068;28;20017;-83
2024/01/05 09:19:44;;;;;;;0.98;0.52;;;;;;;8.93;75.72;99413.72;5058080;28;20025;-82
2024/01/05 09:22:11;;;;;;;0.15;0.15;;;;;;;8.88;75.76;99410.38;5057021;28;20025;-83
2024/01/05 09:24:37;;;;;;;0.10;0.10;;;;;;;8.90;75.67;99413.84;5058421;28;20633;-83
2024/01/05 09:27:04;;;;;;;0.52;0.52;;;;;;;8.91;75.56;99415.56;5056713;28;20037;-83
2024/01/05 09:29:31;;;;;;;0.20;0.20;;;;;;;8.97;75.68;99415.34;5055879;28;20499;-83
2024/01/05 09:31:58;;;;;;;0.20;0.20;;;;;;;8.99;75.62;99424.06;5057939;28;20534;-83
2024/01/05 09:34:24;;;;;;;0.20;0.20;;;;;;;8.95;75.58;99427.72;5057422;28;20033;-84
2024/01/05 09:36:51;;;;;;;0.35;0.35;;;;;;;8.92;75.49;99422.53;5057690;28;20028;-84
2024/01/05 09:39:18;;;;;;;0.10;0.10;;;;;;;8.79;75.80;99437.13;5058132;28;20392;-84
2024/01/05 09:41:48;;;;;;;0.15;0.15;;;;;;;8.91;75.55;99420.84;5058621;28;20021;-84
2024/01/05 09:44:16;;;;;;;0.10;0.10;;;;;;;8.82;75.84;99421.16;5056322;28;20144;-83
2024/01/05 09:46:44;;;;;;;0.30;0.30;;;;;;;8.92;75.87;99427.81;5059301;28;20017;-82
2024/01/05 09:49:13;;;;;;;0.10;0.10;;;;;;;8.81;76.04;99436.16;5056262;28;20463;-82
2024/01/05 09:51:40;;;;;;;0.20;0.20;;;;;;;8.83;76.06;99431.66;5049520;28;20251;-83
2024/01/05 09:54:06;;;;;;;0.40;0.40;;;;;;;8.93;75.86;99434.84;5048250;28;20392;-83
2024/01/05 09:56:34;;;;;;;0.20;0.20;;;;;;;8.89;75.87;99427.94;5050567;28;20064;-84
2024/01/05 09:59:00;;;;;;;0.20;0.20;;;;;;;8.89;76.06;99433.22;5057837;28;20392;-84
2024/01/05 10:01:28;;;;;;;0.13;0.13;;;;;;;9.06;75.96;99440.56;5055515;28;20025;-83
2024/01/05 10:03:57;;;;;;;0.20;0.20;;;;;;;9.07;75.79;99437.84;5054505;28;20029;-84
2024/01/05 10:06:25;;;;;;;0.10;0.10;;;;;;;9.00;76.15;99435.50;5058472;28;20035;-84
2024/01/05 10:08:54;;;;;;;0.20;0.20;;;;;;;9.03;76.00;99440.66;5059373;28;20036;-82
2024/01/05 10:11:40;;;;;;;0.10;0.10;;;;;;;9.13;75.73;99428.81;5057831;28;20029;-83
2024/01/05 10:14:08;;;;;;;0.10;0.10;;;;;;;9.10;75.45;99421.03;5057729;28;20129;-80
2024/01/05 10:16:36;;;;;;;0.20;0.20;;;;;;;9.04;75.77;99432.66;5048514;28;20124;-82
2024/01/05 10:19:20;;;;;;;0.10;0.10;;;;;;;9.09;75.70;99423.72;5061322;28;20033;-81
2024/01/05 10:21:47;;;;;;;0.43;0.43;;;;;;;9.20;75.09;99421.56;5056688;28;20021;-82
2024/01/05 10:24:21;;;;;;;0.63;0.63;;;;;;;9.06;75.93;99419.41;5057549;28;20052;-81
2024/01/05 10:27:07;;;;;;;0.10;0.10;;;;;;;9.00;75.67;99409.09;5054440;28;20021;-80
2024/01/05 10:29:36;;;;;;;0.15;0.15;;;;;;;9.10;75.74;99409.56;5064263;28;20171;-80
2024/01/05 10:34:48;;;;;;;0.20;0.20;;;;;;;9.16;76.17;99410.22;5120701;27;20384;-80
2024/01/05 10:37:16;;;;;;;0.10;0.10;;;;;;;9.17;76.22;99401.38;5124571;28;20032;-81
2024/01/05 10:39:47;;;;;;;0.17;0.17;;;;;;;9.21;75.74;99392.41;5117685;28;20050;-82
2024/01/05 10:44:54;;;;;;;0.40;0.40;;;;;;;9.33;75.53;99379.66;5134354;27;20373;-79
2024/01/05 10:47:24;;;;;;;0.77;0.77;;;;;;;9.31;75.52;99366.50;5117759;28;20032;-79
2024/01/05 10:49:52;;;;;;;0.10;0.10;;;;;;;9.26;75.95;99359.66;5117011;28;20028;-79
2024/01/05 10:52:22;;;;;;;0.10;0.10;;;;;;;9.33;75.57;99359.38;5117228;28;20024;-79
2024/01/05 10:54:50;;;;;;;0.30;0.30;;;;;;;9.38;75.52;99352.13;5118153;28;20020;-81
2024/01/05 10:57:18;;;;;;;1.55;1.45;;;;;;;9.24;76.16;99351.78;5118364;28;20028;-79
2024/01/05 11:05:14;;;;;;;0.10;0.10;;;;;;;9.03;76.30;99349.06;5133253;27;20400;-80
2024/01/05 11:07:42;;;;;;;0.15;0.15;;;;;;;9.12;76.45;99354.91;5095769;28;20059;-79
2024/01/05 11:10:48;;;;;;;0.10;0.10;;;;;;;9.17;76.25;99340.59;5096462;28;20028;-79
2024/01/05 11:22:05;;;;;;;0.10;0.10;;;;;;;9.16;77.36;99341.53;5112282;27;20384;-80
2024/01/05 11:24:33;;;;;;;0.20;0.20;;;;;;;9.24;77.14;99328.00;5108977;28;20028;-81
2024/01/05 11:27:19;;;;;;;0.10;0.10;;;;;;;9.20;77.56;99332.56;5109568;28;20047;-81
2024/01/05 11:32:44;;;;;;;0.20;0.20;;;;;;;9.31;77.37;99340.06;5077724;27;20402;-80
2024/01/05 11:37:54;;;;;;;0.10;0.10;;;;;;;9.39;77.45;99329.19;5081825;28;20390;-81
2024/01/05 11:40:31;;;;;;;0.10;0.10;;;;;;;9.27;78.23;99329.66;5068578;28;20051;-81
2024/01/05 11:42:58;;;;;;;0.13;0.13;;;;;;;9.36;77.96;99330.19;5072121;28;20033;-80
2024/01/05 11:51:13;;;;;;;0.10;0.10;;;;;;;9.57;78.34;99362.00;5110293;27;20372;-81
2024/01/05 11:53:39;;;;;;;0.10;0.10;;;;;;;9.68;77.97;99365.06;5093739;28;20035;-80
2024/01/05 11:56:07;;;;;;;0.10;0.10;;;;;;;9.70;77.94;99355.25;5096410;28;20048;-81
2024/01/05 11:58:36;;;;;;;0.10;0.10;;;;;;;9.78;78.18;99369.97;5097911;28;20032;-81
2024/01/05 12:01:07;;;;;;;0.15;0.15;;;;;;;9.82;77.76;99379.50;5096999;28;20799;-81
2024/01/05 12:03:33;;;;;;;0.50;0.50;;;;;;;9.89;78.44;99388.91;5096939;28;20021;-81
2024/01/05 12:06:01;;;;;;;0.20;0.20;;;;;;;9.96;78.15;99392.19;5096604;28;20020;-81
2024/01/05 12:08:27;;;;;;;0.75;0.75;;;;;;;10.02;78.14;99399.88;5104915;28;20088;-80